Yantis, TX (75497)

12:39 PM CDT on March 30, 2015 (GMT -0500)
Brook Harbor, Lake Fork | | Change Station
CLOSE
Current Station
Personal Weather Station
Location: Yantis, TX
Elevation: 412 ft
Nearby Weather Stations

Elev 412 ft 32.89 °N, 95.53 °W | Updated 3 seconds ago

Overcast
Overcast
71.4 °F
Feels Like 72 °F
N
5.0
Wind Variable Wind from SE
Gusts 8.0 mph

Today
High -- | Low -- °F
--% Chance of Precip.
Yesterday
High -- | Low -- °F
Precip. -- in
7:12 AM 7:40 PM
Waxing Gibbous, 81% visible
Pressure 30.19 in
Visibility 9.0 miles
Clouds Mostly Cloudy 1400 ft
Overcast 2900 ft
Heat Index 72 °F
Dew Point 65 °F
Humidity 80%
Rainfall 0.00 in
Snow Depth Not available.
UV 3 out of 12
Pollen 11.60 out of 12
Air Quality Not available.
Flu Activity Not available.
METAR KJDD 301715Z AUTO 17004KT 9SM BKN014 OVC029 21/18 A3019 RMK AO2

More Conditions Fewer Conditions

Pressure 30.19 in
Visibility 9.0 miles
Clouds Mostly Cloudy 1400 ft
Overcast 2900 ft
Heat Index 72 °F
Dew Point 65 °F
Humidity 80%
Rainfall 0.00 in
Snow Depth Not available.
UV 3 out of 12
Pollen 11.60 out of 12
Air Quality Not available.
Flu Activity Not available.
METAR KJDD 301715Z AUTO 17004KT 9SM BKN014 OVC029 21/18 A3019 RMK AO2

More Conditions Fewer Conditions

10-Day Weather Forecast

Almanac

Astronomy

Mar. 30, 2015 Rise Set
Actual Time
Civil Twilight
Nautical Twilight
Astronomical Twilight
Moon
Length of Visible Light
Length of Day
Tomorrow will be .
, % of the Moon is Illuminated

Today's Extremes

State Highs State Lows

Community

WunderPhotos

Upload Photos

1,809,545 photos uploaded!

WunderBlogs® & News

Nearby

Air Quality

  Air Quality AQ Index Pollutant
Not available.

Snow Depth

Station Depth Elevation

Earthquake Activity

City Distance Mag. Time & Date
Minimum magnitude displayed is 2.5.

Coastal Water Temperatures

Place Temperature

Stations

Nearby Weather Stations

Station Location Temp. Windchill Dew Point Humidity Wind Precip. Elev Updated Type